Time;durP1;ratioP1;P1;durP2;ratioP2;P2;SDS_P1;SDS_P2;PMS_P1;PMS_P2;Temp;Humidity;BMP_temperature;BMP_pressure;BME280_temperature;BME280_humidity;BME280_pressure;Samples;Min_cycle;Max_cycle;Signal;HPM_P1;HPM_P2
2022/11/28 00:02:07;;;;;;;26.60;11.35;;;;;;;;;;10259486;28;20022;-90
2022/11/28 00:07:09;;;;;;;30.08;12.23;;;;;;;;;;10250150;29;20058;-91
2022/11/28 00:12:10;;;;;;;30.42;13.50;;;;;;;;;;10255286;29;20040;-91
2022/11/28 00:17:11;;;;;;;28.58;13.35;;;;;;;;;;10255341;29;20043;-92
2022/11/28 00:22:12;;;;;;;30.00;14.65;;;;;;;;;;10266099;28;20026;-84
2022/11/28 00:27:13;;;;;;;27.90;13.65;;;;;;;;;;10299921;28;20058;-83
2022/11/28 00:32:13;;;;;;;32.78;14.63;;;;;;;;;;10596168;23;20046;-83
2022/11/28 00:37:14;;;;;;;29.65;13.07;;;;;;;;;;10287323;28;20039;-86
2022/11/28 00:42:15;;;;;;;28.63;13.38;;;;;;;;;;10299568;28;20027;-86
2022/11/28 00:47:15;;;;;;;31.95;15.32;;;;;;;;;;10301709;28;20047;-84
2022/11/28 00:52:16;;;;;;;28.42;13.93;;;;;;;;;;10296398;28;20030;-83
2022/11/28 01:02:49;;;;;;;29.48;13.15;;;;;;;;;;10264168;28;20051;-84
2022/11/28 01:07:50;;;;;;;29.00;14.27;;;;;;;;;;10259768;28;20043;-83
2022/11/28 01:12:50;;;;;;;32.75;13.30;;;;;;;;;;10248268;28;20043;-84
2022/11/28 01:17:51;;;;;;;30.50;15.27;;;;;;;;;;10262364;29;20191;-84
2022/11/28 01:22:51;;;;;;;30.67;14.20;;;;;;;;;;10199575;29;20296;-84
2022/11/28 01:27:51;;;;;;;26.47;12.80;;;;;;;;;;10189539;29;20399;-83
2022/11/28 01:32:52;;;;;;;31.33;13.97;;;;;;;;;;10177070;29;20294;-83
2022/11/28 01:37:52;;;;;;;29.20;13.68;;;;;;;;;;10214088;29;20292;-84
2022/11/28 01:42:53;;;;;;;28.88;13.10;;;;;;;;;;10229702;29;20039;-85
2022/11/28 01:47:56;;;;;;;26.50;13.40;;;;;;;;;;10229646;29;20047;-83
2022/11/28 01:53:01;;;;;;;28.63;15.25;;;;;;;;;;10221983;29;20067;-82
2022/11/28 01:58:02;;;;;;;28.35;14.25;;;;;;;;;;10211977;28;20080;-83
2022/11/28 02:03:05;;;;;;;29.50;13.75;;;;;;;;;;10236115;29;20024;-83
2022/11/28 02:08:09;;;;;;;26.83;14.43;;;;;;;;;;10217717;28;20467;-83
2022/11/28 02:13:21;;;;;;;27.58;13.32;;;;;;;;;;10208305;29;20075;-85
2022/11/28 02:18:28;;;;;;;30.52;13.77;;;;;;;;;;10205438;29;20048;-83
2022/11/28 02:23:41;;;;;;;28.73;13.95;;;;;;;;;;10657908;23;20065;-86
2022/11/28 02:28:44;;;;;;;29.20;13.43;;;;;;;;;;10751872;23;20047;-85
2022/11/28 02:33:50;;;;;;;30.00;14.82;;;;;;;;;;10274536;29;20042;-83
2022/11/28 02:38:55;;;;;;;30.65;14.65;;;;;;;;;;10258327;28;20143;-83
2022/11/28 02:44:04;;;;;;;30.17;14.40;;;;;;;;;;10242006;28;20134;-83
2022/11/28 02:49:06;;;;;;;28.75;13.80;;;;;;;;;;10265235;28;20042;-84
2022/11/28 02:54:08;;;;;;;29.23;14.40;;;;;;;;;;10245210;28;20095;-86
2022/11/28 02:59:37;;;;;;;25.05;12.98;;;;;;;;;;10270196;29;20142;-84
2022/11/28 03:04:57;;;;;;;26.80;13.32;;;;;;;;;;10266724;28;20051;-82
2022/11/28 03:09:57;;;;;;;27.15;13.68;;;;;;;;;;10295596;28;20066;-84
2022/11/28 03:15:02;;;;;;;28.95;13.80;;;;;;;;;;10281322;28;20632;-86
2022/11/28 03:20:06;;;;;;;28.23;14.00;;;;;;;;;;10252329;28;20054;-85
2022/11/28 03:25:09;;;;;;;30.75;15.65;;;;;;;;;;10254598;29;20042;-84
2022/11/28 03:30:20;;;;;;;27.55;12.70;;;;;;;;;;10258947;29;20039;-85
2022/11/28 03:35:22;;;;;;;26.48;12.85;;;;;;;;;;10252363;29;20047;-85
2022/11/28 03:40:29;;;;;;;24.63;12.10;;;;;;;;;;10278624;29;20088;-87
2022/11/28 03:51:16;;;;;;;23.15;12.07;;;;;;;;;;10253755;28;20091;-82
2022/11/28 03:56:21;;;;;;;24.60;12.05;;;;;;;;;;10394142;23;20039;-84
2022/11/28 04:01:22;;;;;;;22.90;11.35;;;;;;;;;;10306240;28;20039;-86
2022/11/28 04:06:27;;;;;;;21.70;11.27;;;;;;;;;;10305374;28;20019;-85
2022/11/28 04:11:35;;;;;;;20.35;10.88;;;;;;;;;;10302874;28;20286;-83
2022/11/28 04:16:55;;;;;;;22.45;11.15;;;;;;;;;;10507475;23;20037;-79
2022/11/28 04:22:16;;;;;;;;;;;;;;;;;;;;;
2022/11/28 04:27:38;;;;;;;23.15;11.57;;;;;;;;;;11205225;23;20314;-79
2022/11/28 04:32:41;;;;;;;23.45;12.18;;;;;;;;;;10586240;23;20039;-79
2022/11/28 04:37:44;;;;;;;23.20;11.73;;;;;;;;;;10406194;23;20055;-85
2022/11/28 04:42:48;;;;;;;22.33;11.10;;;;;;;;;;10271380;28;20145;-84
2022/11/28 04:47:49;;;;;;;25.58;11.43;;;;;;;;;;10247209;28;20059;-83
2022/11/28 04:53:03;;;;;;;23.67;13.57;;;;;;;;;;10258174;28;20008;-85
2022/11/28 04:58:08;;;;;;;28.67;13.70;;;;;;;;;;10227096;29;20315;-88
2022/11/28 05:03:09;;;;;;;25.35;12.32;;;;;;;;;;10218986;29;20127;-84
2022/11/28 05:08:10;;;;;;;27.58;13.50;;;;;;;;;;10223834;29;20052;-85
2022/11/28 05:13:10;;;;;;;25.90;13.38;;;;;;;;;;10296945;23;20063;-86
2022/11/28 05:18:10;;;;;;;26.73;13.50;;;;;;;;;;10280588;28;20051;-85
2022/11/28 05:23:11;;;;;;;27.43;15.47;;;;;;;;;;10292606;28;20306;-85
2022/11/28 05:28:11;;;;;;;27.33;14.43;;;;;;;;;;10277278;28;20294;-84
2022/11/28 05:33:11;;;;;;;28.27;14.63;;;;;;;;;;10254465;29;20094;-88
2022/11/28 05:38:12;;;;;;;28.57;14.50;;;;;;;;;;10254813;28;20322;-88
2022/11/28 05:43:12;;;;;;;28.80;14.18;;;;;;;;;;10237275;29;20295;-87
2022/11/28 05:48:13;;;;;;;29.55;13.88;;;;;;;;;;10259080;28;20051;-87
2022/11/28 05:53:17;;;;;;;27.85;13.25;;;;;;;;;;10262398;29;20031;-87
2022/11/28 05:58:17;;;;;;;24.83;13.07;;;;;;;;;;10261529;28;20043;-83
2022/11/28 06:03:17;;;;;;;26.20;12.67;;;;;;;;;;10287686;28;20044;-82
2022/11/28 06:08:18;;;;;;;24.27;13.23;;;;;;;;;;10255543;29;20762;-84
2022/11/28 06:13:19;;;;;;;25.23;12.97;;;;;;;;;;10267890;28;20287;-82
2022/11/28 06:18:19;;;;;;;23.75;12.50;;;;;;;;;;10349734;23;20299;-85
2022/11/28 06:23:20;;;;;;;22.73;12.05;;;;;;;;;;10275648;28;20043;-86
2022/11/28 06:28:20;;;;;;;28.63;13.27;;;;;;;;;;10287620;28;20163;-84
2022/11/28 06:33:21;;;;;;;28.75;13.50;;;;;;;;;;10278830;28;20302;-83
2022/11/28 06:38:21;;;;;;;27.75;14.15;;;;;;;;;;10309891;28;20047;-87
2022/11/28 06:43:23;;;;;;;27.47;13.80;;;;;;;;;;10270760;28;20106;-85
2022/11/28 06:48:23;;;;;;;25.88;14.18;;;;;;;;;;10268704;28;20330;-82
2022/11/28 06:53:24;;;;;;;27.55;13.25;;;;;;;;;;10234160;28;20058;-83
2022/11/28 06:58:24;;;;;;;26.43;14.37;;;;;;;;;;10267426;28;20034;-82
2022/11/28 07:03:25;;;;;;;24.67;13.52;;;;;;;;;;10263261;28;20040;-84
2022/11/28 07:08:26;;;;;;;27.90;13.45;;;;;;;;;;10256230;28;20106;-82
2022/11/28 07:13:27;;;;;;;26.65;14.35;;;;;;;;;;10248117;28;20042;-83
2022/11/28 07:18:28;;;;;;;27.98;14.23;;;;;;;;;;10247165;28;20077;-84
2022/11/28 07:23:29;;;;;;;21.88;11.80;;;;;;;;;;10257676;28;20059;-82
2022/11/28 07:28:30;;;;;;;27.35;13.85;;;;;;;;;;10247570;28;20039;-83
2022/11/28 07:33:31;;;;;;;22.52;12.93;;;;;;;;;;10258783;28;20042;-81
2022/11/28 07:38:32;;;;;;;25.02;12.75;;;;;;;;;;10237288;28;20062;-81
2022/11/28 07:43:32;;;;;;;22.58;12.13;;;;;;;;;;10243819;28;20044;-81
2022/11/28 07:48:33;;;;;;;23.08;11.75;;;;;;;;;;10246618;28;20050;-82
2022/11/28 07:53:33;;;;;;;25.20;13.52;;;;;;;;;;10240748;28;20036;-81
2022/11/28 07:58:35;;;;;;;21.67;11.68;;;;;;;;;;10254413;28;20082;-84
2022/11/28 08:03:37;;;;;;;25.73;13.63;;;;;;;;;;10245510;28;20051;-82
2022/11/28 08:08:39;;;;;;;28.05;12.88;;;;;;;;;;10248161;28;20102;-81
2022/11/28 08:13:40;;;;;;;21.75;12.65;;;;;;;;;;10251945;28;20050;-82
2022/11/28 08:18:44;;;;;;;22.95;11.75;;;;;;;;;;10249439;28;20043;-81
2022/11/28 08:23:44;;;;;;;24.38;12.65;;;;;;;;;;10238968;28;20045;-83
2022/11/28 08:28:45;;;;;;;26.35;13.18;;;;;;;;;;10256985;28;20035;-86
2022/11/28 08:33:47;;;;;;;23.35;13.65;;;;;;;;;;10273181;28;20114;-84
2022/11/28 08:38:48;;;;;;;23.48;12.73;;;;;;;;;;10270775;28;20043;-83
2022/11/28 08:43:48;;;;;;;21.58;12.13;;;;;;;;;;10290571;28;20030;-82
2022/11/28 08:48:50;;;;;;;23.50;12.73;;;;;;;;;;10417987;23;20035;-81
2022/11/28 08:53:51;;;;;;;22.00;11.88;;;;;;;;;;10274537;28;20024;-81
2022/11/28 08:58:51;;;;;;;19.85;11.40;;;;;;;;;;10267043;28;20059;-83
2022/11/28 09:03:52;;;;;;;23.13;12.43;;;;;;;;;;10250860;28;20056;-82
2022/11/28 09:08:52;;;;;;;22.30;12.73;;;;;;;;;;10252422;29;20283;-82
2022/11/28 09:13:54;;;;;;;23.70;12.18;;;;;;;;;;10237411;28;20058;-81
2022/11/28 09:18:57;;;;;;;23.42;11.98;;;;;;;;;;10223370;29;20048;-83
2022/11/28 09:23:58;;;;;;;28.63;13.68;;;;;;;;;;10224585;28;20125;-80
2022/11/28 09:28:58;;;;;;;21.25;11.88;;;;;;;;;;10218630;29;20480;-80
2022/11/28 09:33:58;;;;;;;21.63;11.80;;;;;;;;;;10223582;29;20046;-81
2022/11/28 09:38:59;;;;;;;23.97;12.57;;;;;;;;;;10220817;28;20328;-82
2022/11/28 09:44:09;;;;;;;21.17;12.32;;;;;;;;;;10230067;29;20326;-82
2022/11/28 09:49:16;;;;;;;18.63;11.13;;;;;;;;;;10220306;29;20046;-79
2022/11/28 09:54:36;;;;;;;18.58;10.10;;;;;;;;;;10226463;28;20121;-83
2022/11/28 09:59:36;;;;;;;18.85;10.75;;;;;;;;;;10219472;28;20040;-82
2022/11/28 10:04:55;;;;;;;19.45;11.57;;;;;;;;;;10216786;29;20035;-80
2022/11/28 10:10:01;;;;;;;20.30;11.77;;;;;;;;;;10239909;28;20055;-81
2022/11/28 10:15:10;;;;;;;17.05;10.35;;;;;;;;;;10238512;29;20036;-82
2022/11/28 10:20:15;;;;;;;19.33;11.27;;;;;;;;;;10234970;28;20167;-82
2022/11/28 10:25:18;;;;;;;20.05;10.90;;;;;;;;;;10251914;28;20051;-83
2022/11/28 10:30:22;;;;;;;17.90;11.03;;;;;;;;;;10241099;29;20028;-80
2022/11/28 10:35:37;;;;;;;19.83;11.07;;;;;;;;;;10252950;28;20572;-79
2022/11/28 10:40:42;;;;;;;19.83;12.02;;;;;;;;;;10219284;29;20135;-83
2022/11/28 10:45:55;;;;;;;22.02;12.60;;;;;;;;;;10214039;29;20054;-80
2022/11/28 10:50:55;;;;;;;20.27;12.02;;;;;;;;;;10248101;28;20039;-81
2022/11/28 10:56:09;;;;;;;21.27;13.30;;;;;;;;;;10259256;29;20083;-81
2022/11/28 11:01:10;;;;;;;22.00;11.70;;;;;;;;;;10250413;29;20298;-81
2022/11/28 11:06:10;;;;;;;20.20;11.68;;;;;;;;;;10222090;29;20043;-80
2022/11/28 11:11:27;;;;;;;19.70;12.30;;;;;;;;;;10214078;29;20046;-81
2022/11/28 11:16:47;;;;;;;20.85;12.32;;;;;;;;;;10226445;29;20299;-82
2022/11/28 11:21:58;;;;;;;21.30;12.07;;;;;;;;;;10221117;28;20032;-81
2022/11/28 11:27:06;;;;;;;22.10;12.25;;;;;;;;;;10220595;28;20043;-84
2022/11/28 11:32:20;;;;;;;20.88;12.63;;;;;;;;;;10219820;29;20056;-81
2022/11/28 11:37:31;;;;;;;19.45;11.77;;;;;;;;;;10223165;29;20043;-83
2022/11/28 11:42:32;;;;;;;24.30;12.55;;;;;;;;;;10222727;29;20063;-82
2022/11/28 11:47:43;;;;;;;19.33;12.68;;;;;;;;;;10234725;29;20043;-82
2022/11/28 11:52:43;;;;;;;23.17;13.07;;;;;;;;;;10246857;29;20047;-81
2022/11/28 11:57:49;;;;;;;22.75;12.00;;;;;;;;;;10249562;28;20090;-82
2022/11/28 12:02:50;;;;;;;25.40;13.77;;;;;;;;;;10272988;28;20025;-79
2022/11/28 12:07:56;;;;;;;26.03;14.00;;;;;;;;;;10231134;28;20063;-82
2022/11/28 12:12:56;;;;;;;21.02;12.18;;;;;;;;;;10239183;29;20070;-83
2022/11/28 12:18:00;;;;;;;23.20;12.75;;;;;;;;;;10241120;29;20043;-82
2022/11/28 12:23:01;;;;;;;23.67;13.68;;;;;;;;;;10261290;28;20030;-80
2022/11/28 12:28:02;;;;;;;21.30;13.00;;;;;;;;;;10279187;28;20099;-80
2022/11/28 12:33:21;;;;;;;20.58;12.40;;;;;;;;;;10261058;29;20055;-80
2022/11/28 12:38:43;;;;;;;23.20;14.05;;;;;;;;;;10277361;29;20051;-85
2022/11/28 12:44:02;;;;;;;21.65;12.95;;;;;;;;;;10473296;23;20047;-81
2022/11/28 12:49:16;;;;;;;19.58;14.10;;;;;;;;;;10259204;28;20071;-82
2022/11/28 12:54:27;;;;;;;24.00;14.45;;;;;;;;;;10235764;29;20028;-82
2022/11/28 12:59:33;;;;;;;22.05;12.73;;;;;;;;;;10208703;29;20058;-83
2022/11/28 13:04:37;;;;;;;22.23;13.48;;;;;;;;;;10228662;28;20028;-82
2022/11/28 13:09:37;;;;;;;;;;;;;;;;;;10242310;29;20396;-81
2022/11/28 13:15:02;;;;;;;20.55;13.07;;;;;;;;;;10238666;28;19914;-80
2022/11/28 13:20:22;;;;;;;21.17;12.13;;;;;;;;;;10225798;29;20055;-82
2022/11/28 13:25:32;;;;;;;21.77;13.50;;;;;;;;;;10199454;29;20123;-85
2022/11/28 13:30:40;;;;;;;20.20;12.75;;;;;;;;;;10219460;28;20168;-82
2022/11/28 13:35:41;;;;;;;22.52;12.75;;;;;;;;;;10225801;29;20063;-81
2022/11/28 13:40:50;;;;;;;21.65;12.77;;;;;;;;;;10234830;29;20046;-82
2022/11/28 13:45:51;;;;;;;19.77;13.18;;;;;;;;;;10223808;29;20122;-83
2022/11/28 13:51:14;;;;;;;22.98;13.10;;;;;;;;;;10228874;29;20035;-83
2022/11/28 13:56:25;;;;;;;18.27;11.60;;;;;;;;;;10245915;29;20051;-84
2022/11/28 14:01:42;;;;;;;21.17;12.70;;;;;;;;;;10226211;29;20020;-84
2022/11/28 14:12:24;;;;;;;21.70;12.68;;;;;;;;;;10287858;28;20055;-82
2022/11/28 14:17:35;;;;;;;24.52;13.65;;;;;;;;;;10235491;28;20067;-83
2022/11/28 14:22:37;;;;;;;21.15;12.90;;;;;;;;;;10255466;28;20062;-84
2022/11/28 14:27:39;;;;;;;22.65;15.15;;;;;;;;;;10231871;29;20078;-80
2022/11/28 14:32:42;;;;;;;23.75;13.98;;;;;;;;;;10226464;29;20496;-84
2022/11/28 14:37:47;;;;;;;23.07;13.33;;;;;;;;;;10217748;29;20044;-83
2022/11/28 14:43:09;;;;;;;21.55;13.13;;;;;;;;;;10220472;28;20690;-83
2022/11/28 14:48:15;;;;;;;21.65;12.70;;;;;;;;;;10224734;29;20047;-81
2022/11/28 14:53:34;;;;;;;25.33;14.40;;;;;;;;;;10224877;29;20118;-85
2022/11/28 14:58:36;;;;;;;23.25;13.65;;;;;;;;;;10245719;29;20103;-83
2022/11/28 15:03:59;;;;;;;23.77;13.27;;;;;;;;;;10266782;29;20039;-83
2022/11/28 15:09:16;;;;;;;23.92;14.15;;;;;;;;;;10266720;28;20016;-84
2022/11/28 15:14:21;;;;;;;24.73;15.43;;;;;;;;;;10258796;28;20031;-81
2022/11/28 15:19:25;;;;;;;30.70;16.17;;;;;;;;;;10244327;28;20173;-82
2022/11/28 15:24:26;;;;;;;29.95;17.15;;;;;;;;;;10265084;28;20095;-81
2022/11/28 15:29:27;;;;;;;29.15;16.27;;;;;;;;;;10245687;28;20065;-85
2022/11/28 15:34:28;;;;;;;26.38;15.50;;;;;;;;;;10233604;29;20055;-85
2022/11/28 15:39:34;;;;;;;26.88;14.95;;;;;;;;;;10228182;29;20075;-83
2022/11/28 15:44:36;;;;;;;28.60;16.38;;;;;;;;;;10255746;29;20035;-83
2022/11/28 15:49:39;;;;;;;29.08;16.67;;;;;;;;;;10265544;28;20115;-82
2022/11/28 15:54:40;;;;;;;30.17;16.80;;;;;;;;;;10264164;28;20039;-81
2022/11/28 15:59:43;;;;;;;28.13;16.55;;;;;;;;;;10264470;28;20102;-81
2022/11/28 16:04:45;;;;;;;26.70;16.73;;;;;;;;;;10246808;28;20028;-82
2022/11/28 16:09:52;;;;;;;29.73;17.30;;;;;;;;;;10240745;29;20048;-82
2022/11/28 16:14:57;;;;;;;28.38;16.98;;;;;;;;;;10232094;29;20074;-84
2022/11/28 16:19:59;;;;;;;27.17;16.70;;;;;;;;;;10251864;29;20397;-84
2022/11/28 16:25:10;;;;;;;30.05;18.25;;;;;;;;;;10234643;29;20046;-82
2022/11/28 16:30:23;;;;;;;32.42;17.58;;;;;;;;;;10246123;29;20051;-83
2022/11/28 16:35:42;;;;;;;30.88;18.00;;;;;;;;;;10231339;29;20046;-84
2022/11/28 16:40:43;;;;;;;32.72;19.13;;;;;;;;;;10186237;29;20087;-83
2022/11/28 16:45:43;;;;;;;31.52;18.77;;;;;;;;;;10216755;29;20039;-77
2022/11/28 16:51:09;;;;;;;33.53;19.75;;;;;;;;;;10246977;29;20039;-81
2022/11/28 16:56:41;;;;;;;32.63;18.92;;;;;;;;;;10254229;28;20047;-79
2022/11/28 17:01:43;;;;;;;29.02;17.52;;;;;;;;;;10212875;28;20064;-85
2022/11/28 17:06:43;;;;;;;32.90;18.92;;;;;;;;;;10239444;29;20404;-84
2022/11/28 17:11:55;;;;;;;33.87;19.17;;;;;;;;;;10254721;29;20047;-84
2022/11/28 17:16:55;;;;;;;31.08;18.13;;;;;;;;;;10243330;28;20311;-81
2022/11/28 17:21:58;;;;;;;31.67;18.48;;;;;;;;;;10251755;28;20028;-80
2022/11/28 17:26:58;;;;;;;30.25;17.75;;;;;;;;;;10253099;28;20035;-82
2022/11/28 17:32:00;;;;;;;31.00;17.58;;;;;;;;;;10230079;29;20388;-82
2022/11/28 17:37:01;;;;;;;30.67;17.92;;;;;;;;;;10215620;29;20408;-82
2022/11/28 17:42:02;;;;;;;36.22;19.90;;;;;;;;;;10236657;29;20040;-85
2022/11/28 17:47:03;;;;;;;32.38;18.70;;;;;;;;;;10229245;29;20042;-83
2022/11/28 17:52:03;;;;;;;31.08;18.23;;;;;;;;;;10198847;29;20054;-84
2022/11/28 17:57:03;;;;;;;32.45;19.15;;;;;;;;;;10228461;29;20115;-80
2022/11/28 18:02:06;;;;;;;36.78;20.73;;;;;;;;;;10227464;28;20090;-83
2022/11/28 18:07:07;;;;;;;36.92;20.48;;;;;;;;;;10237128;28;20055;-83
2022/11/28 18:12:08;;;;;;;33.53;18.33;;;;;;;;;;10229279;29;20043;-83
2022/11/28 18:17:09;;;;;;;33.90;19.20;;;;;;;;;;10264827;28;20372;-81
2022/11/28 18:22:10;;;;;;;32.13;19.65;;;;;;;;;;10241747;29;20083;-85
2022/11/28 18:27:12;;;;;;;28.38;17.35;;;;;;;;;;10194386;29;20046;-83
2022/11/28 18:32:12;;;;;;;34.07;18.40;;;;;;;;;;10218582;29;20342;-83
2022/11/28 18:37:13;;;;;;;35.20;19.80;;;;;;;;;;10229715;29;20326;-83
2022/11/28 18:42:14;;;;;;;36.55;20.30;;;;;;;;;;10222165;29;20028;-84
2022/11/28 18:47:14;;;;;;;36.65;20.65;;;;;;;;;;10226090;28;20031;-81
2022/11/28 18:52:16;;;;;;;34.70;19.83;;;;;;;;;;10216621;29;20050;-83
2022/11/28 18:57:16;;;;;;;37.75;19.63;;;;;;;;;;10215474;29;20895;-83
2022/11/28 19:02:17;;;;;;;33.53;18.70;;;;;;;;;;10221302;29;20127;-83
2022/11/28 19:07:18;;;;;;;36.55;20.05;;;;;;;;;;10205167;29;20047;-82
2022/11/28 19:12:19;;;;;;;37.40;20.92;;;;;;;;;;10221166;29;20130;-83
2022/11/28 19:17:19;;;;;;;33.08;19.15;;;;;;;;;;10218698;29;20160;-82
2022/11/28 19:22:21;;;;;;;35.10;19.40;;;;;;;;;;10233024;29;20046;-83
2022/11/28 19:27:21;;;;;;;34.55;19.30;;;;;;;;;;10240770;29;20039;-83
2022/11/28 19:32:29;;;;;;;32.47;18.85;;;;;;;;;;10204752;29;20060;-83
2022/11/28 19:37:30;;;;;;;;;;;;;;;;;;10268429;28;20032;-83
2022/11/28 19:42:34;;;;;;;35.53;19.52;;;;;;;;;;10270447;28;19993;-81
2022/11/28 19:47:54;;;;;;;31.17;18.88;;;;;;;;;;10277795;28;20083;-81
2022/11/28 19:52:54;;;;;;;32.22;17.98;;;;;;;;;;10254666;29;20073;-80
2022/11/28 19:57:54;;;;;;;30.70;17.53;;;;;;;;;;10268811;28;20106;-81
2022/11/28 20:02:55;;;;;;;30.20;16.77;;;;;;;;;;10264362;28;20303;-84
2022/11/28 20:07:56;;;;;;;30.92;18.77;;;;;;;;;;10269538;28;20031;-83
2022/11/28 20:13:00;;;;;;;36.63;21.27;;;;;;;;;;10279022;28;20020;-84
2022/11/28 20:18:05;;;;;;;33.53;18.65;;;;;;;;;;10260966;28;20040;-84
2022/11/28 20:23:07;;;;;;;28.20;17.38;;;;;;;;;;10460607;23;20050;-83
2022/11/28 20:28:17;;;;;;;32.70;18.67;;;;;;;;;;10329812;28;20324;-85
2022/11/28 20:33:30;;;;;;;32.70;18.10;;;;;;;;;;10311088;28;20089;-85
2022/11/28 20:38:53;;;;;;;31.52;18.98;;;;;;;;;;10300312;28;20077;-85
2022/11/28 20:43:55;;;;;;;30.48;17.40;;;;;;;;;;10328699;28;20042;-83
2022/11/28 20:48:56;;;;;;;28.42;17.08;;;;;;;;;;10302620;28;20035;-80
2022/11/28 20:53:58;;;;;;;34.25;17.92;;;;;;;;;;10298256;28;20043;-83
2022/11/28 20:59:00;;;;;;;35.30;19.27;;;;;;;;;;10282629;28;20050;-82
2022/11/28 21:04:02;;;;;;;29.95;17.55;;;;;;;;;;10283176;28;20130;-83
2022/11/28 21:09:03;;;;;;;30.25;17.52;;;;;;;;;;10289480;28;20134;-83
2022/11/28 21:14:04;;;;;;;30.80;17.20;;;;;;;;;;10297687;28;20066;-81
2022/11/28 21:19:06;;;;;;;33.83;18.38;;;;;;;;;;10293146;28;20463;-82
2022/11/28 21:24:08;;;;;;;33.63;18.63;;;;;;;;;;10307487;28;20051;-82
2022/11/28 21:29:10;;;;;;;30.77;18.08;;;;;;;;;;10335178;28;20034;-82
2022/11/28 21:34:13;;;;;;;33.05;19.05;;;;;;;;;;10308328;28;20039;-82
2022/11/28 21:39:15;;;;;;;35.80;18.97;;;;;;;;;;10281515;28;20050;-83
2022/11/28 21:44:15;;;;;;;36.67;19.27;;;;;;;;;;10292065;28;20043;-81
2022/11/28 21:49:16;;;;;;;36.03;18.70;;;;;;;;;;10322142;28;20046;-80
2022/11/28 21:54:17;;;;;;;35.58;19.33;;;;;;;;;;10318703;28;20026;-82
2022/11/28 21:59:21;;;;;;;38.25;20.70;;;;;;;;;;10281447;28;20047;-82
2022/11/28 22:04:22;;;;;;;37.00;19.77;;;;;;;;;;10296504;28;20099;-82
2022/11/28 22:09:23;;;;;;;33.65;19.42;;;;;;;;;;10282393;28;20122;-81
2022/11/28 22:14:23;;;;;;;40.90;19.97;;;;;;;;;;10281609;28;20134;-82
2022/11/28 22:19:23;;;;;;;35.47;20.13;;;;;;;;;;10279608;28;20314;-82
2022/11/28 22:24:24;;;;;;;36.90;19.83;;;;;;;;;;10280425;28;20348;-80
2022/11/28 22:29:24;;;;;;;36.30;19.90;;;;;;;;;;10293147;28;20194;-81
2022/11/28 22:34:26;;;;;;;39.40;21.30;;;;;;;;;;10275309;28;20053;-82
2022/11/28 22:39:27;;;;;;;35.90;19.80;;;;;;;;;;10287954;28;20060;-81
2022/11/28 22:44:27;;;;;;;38.67;19.48;;;;;;;;;;10274298;28;20133;-81
2022/11/28 22:49:28;;;;;;;39.33;19.50;;;;;;;;;;10294474;28;20057;-82
2022/11/28 22:54:28;;;;;;;40.20;21.08;;;;;;;;;;10291995;28;20042;-84
2022/11/28 22:59:32;;;;;;;37.20;19.98;;;;;;;;;;10296382;28;20042;-83
2022/11/28 23:04:33;;;;;;;35.97;19.08;;;;;;;;;;10309804;28;20042;-80
2022/11/28 23:09:33;;;;;;;35.42;20.13;;;;;;;;;;10288194;28;20035;-81
2022/11/28 23:14:34;;;;;;;42.03;21.10;;;;;;;;;;10290762;28;20419;-83
2022/11/28 23:19:34;;;;;;;39.00;20.60;;;;;;;;;;10302751;28;20043;-81
2022/11/28 23:24:36;;;;;;;37.90;20.30;;;;;;;;;;10316975;28;20031;-82
2022/11/28 23:29:38;;;;;;;42.33;21.42;;;;;;;;;;10304640;28;20034;-80
2022/11/28 23:34:38;;;;;;;33.30;19.27;;;;;;;;;;10304651;28;20063;-80
2022/11/28 23:39:39;;;;;;;40.92;21.02;;;;;;;;;;10347067;28;20039;-78
2022/11/28 23:44:41;;;;;;;40.53;20.27;;;;;;;;;;10330815;28;20062;-80
2022/11/28 23:49:42;;;;;;;41.60;21.15;;;;;;;;;;10332979;28;20046;-82
2022/11/28 23:54:42;;;;;;;38.88;19.35;;;;;;;;;;10304926;28;20094;-82
2022/11/28 23:59:42;;;;;;;42.45;20.92;;;;;;;;;;10300740;28;20491;-82
